Time;durP1;ratioP1;P1;durP2;ratioP2;P2;SDS_P1;SDS_P2;PMS_P1;PMS_P2;Temp;Humidity;BMP_temperature;BMP_pressure;BME280_temperature;BME280_humidity;BME280_pressure;Samples;Min_cycle;Max_cycle;Signal;HPM_P1;HPM_P2
2023/11/22 00:01:40;;;;;;;16.75;7.60;;;4.70;99.90;;;;;;493911;241;27549;-72
2023/11/22 00:03:41;;;;;;;8.90;7.12;;;4.80;99.90;;;;;;494102;241;27944;-72
2023/11/22 00:05:42;;;;;;;11.85;7.85;;;4.80;99.90;;;;;;494023;237;27994;-72
2023/11/22 00:07:43;;;;;;;10.57;8.25;;;4.70;99.90;;;;;;494006;241;28018;-71
2023/11/22 00:09:47;;;;;;;12.75;8.90;;;4.60;99.90;;;;;;494017;241;27554;-71
2023/11/22 00:11:46;;;;;;;12.20;8.85;;;4.70;99.90;;;;;;493860;241;27537;-72
2023/11/22 00:13:48;;;;;;;9.98;7.62;;;5.90;99.90;;;;;;494067;241;27556;-72
2023/11/22 00:15:50;;;;;;;11.50;8.02;;;4.40;99.90;;;;;;493950;241;27512;-71
2023/11/22 00:17:50;;;;;;;11.82;7.87;;;4.30;99.90;;;;;;493935;241;27458;-71
2023/11/22 00:19:51;;;;;;;8.95;7.40;;;4.30;99.90;;;;;;494065;241;27601;-72
2023/11/22 00:21:52;;;;;;;10.40;7.62;;;4.20;99.90;;;;;;494015;241;28038;-73
2023/11/22 00:23:53;;;;;;;11.80;7.90;;;4.20;99.90;;;;;;494092;237;27988;-71
2023/11/22 00:25:55;;;;;;;10.85;8.52;;;4.20;99.90;;;;;;494081;241;27537;-72
2023/11/22 00:27:56;;;;;;;10.90;6.82;;;4.20;99.90;;;;;;494002;241;27498;-71
2023/11/22 00:29:57;;;;;;;10.75;6.78;;;4.20;99.90;;;;;;493963;241;27575;-72
2023/11/22 00:31:58;;;;;;;11.05;6.80;;;4.10;99.90;;;;;;494014;241;27600;-72
2023/11/22 00:34:00;;;;;;;10.25;6.22;;;4.00;99.90;;;;;;494010;241;27484;-71
2023/11/22 00:36:04;;;;;;;9.93;7.25;;;4.00;99.90;;;;;;493992;241;27546;-71
2023/11/22 00:38:02;;;;;;;10.00;7.62;;;4.00;99.90;;;;;;493842;241;27583;-72
2023/11/22 00:40:10;;;;;;;10.70;7.35;;;3.90;99.90;;;;;;494111;241;27971;-71
2023/11/22 00:42:05;;;;;;;9.15;6.65;;;3.90;99.90;;;;;;493575;241;29018;-72
2023/11/22 00:44:06;;;;;;;10.05;7.00;;;3.90;99.90;;;;;;494102;241;27942;-71
2023/11/22 00:46:07;;;;;;;8.93;6.57;;;3.90;99.90;;;;;;494089;239;27558;-72
2023/11/22 00:48:09;;;;;;;9.57;6.90;;;3.90;99.90;;;;;;494027;241;27512;-74
2023/11/22 00:50:10;;;;;;;8.55;6.57;;;3.90;99.90;;;;;;494011;237;27463;-71
2023/11/22 00:52:11;;;;;;;10.25;6.75;;;3.80;99.90;;;;;;494062;241;27508;-72
2023/11/22 00:54:12;;;;;;;13.13;6.72;;;3.80;99.90;;;;;;494073;241;27483;-71
2023/11/22 00:56:14;;;;;;;11.32;6.78;;;3.80;99.90;;;;;;494083;241;27967;-72
2023/11/22 00:58:15;;;;;;;8.35;6.65;;;3.70;99.90;;;;;;494106;237;27992;-71
2023/11/22 01:00:16;;;;;;;10.32;6.60;;;3.70;99.90;;;;;;494103;241;29023;-72
2023/11/22 01:02:17;;;;;;;11.07;6.90;;;3.60;99.90;;;;;;494071;241;27516;-72
2023/11/22 01:04:19;;;;;;;7.20;5.90;;;3.60;99.90;;;;;;494083;241;27620;-71
2023/11/22 01:06:20;;;;;;;8.63;6.20;;;3.60;99.90;;;;;;494006;241;27472;-71
2023/11/22 01:08:21;;;;;;;8.35;6.30;;;3.50;99.90;;;;;;493988;241;27522;-71
2023/11/22 01:10:22;;;;;;;7.62;6.12;;;3.50;99.90;;;;;;494009;241;27490;-71
2023/11/22 01:12:24;;;;;;;9.05;6.30;;;3.50;99.90;;;;;;494032;241;27531;-72
2023/11/22 01:14:26;;;;;;;8.93;6.53;;;3.40;99.90;;;;;;494023;241;27879;-73
2023/11/22 01:16:27;;;;;;;9.38;5.85;;;3.50;99.90;;;;;;494057;241;28109;-71
2023/11/22 01:18:27;;;;;;;7.85;6.20;;;3.50;99.90;;;;;;494068;241;29041;-72
2023/11/22 01:20:29;;;;;;;9.20;6.07;;;3.40;99.90;;;;;;494001;241;27466;-71
2023/11/22 01:22:31;;;;;;;10.00;6.95;;;3.40;99.90;;;;;;494125;241;27492;-73
2023/11/22 01:24:31;;;;;;;8.95;6.22;;;3.40;99.90;;;;;;494014;241;27651;-73
2023/11/22 01:26:32;;;;;;;11.35;6.47;;;3.40;99.90;;;;;;494120;241;27472;-72
2023/11/22 01:28:34;;;;;;;9.48;6.68;;;3.30;99.90;;;;;;494017;241;27516;-72
2023/11/22 01:30:35;;;;;;;8.07;6.37;;;3.30;99.90;;;;;;494135;241;27517;-73
2023/11/22 01:32:36;;;;;;;10.13;5.95;;;3.30;99.90;;;;;;494141;241;27676;-72
2023/11/22 01:34:37;;;;;;;7.90;5.43;;;3.20;99.90;;;;;;494117;241;27512;-72
2023/11/22 01:36:39;;;;;;;8.95;5.95;;;3.20;99.90;;;;;;494097;241;27582;-72
2023/11/22 01:38:40;;;;;;;13.07;5.65;;;3.20;99.90;;;;;;494084;241;27978;-72
2023/11/22 01:40:41;;;;;;;7.82;5.80;;;3.10;99.90;;;;;;494082;241;27974;-73
2023/11/22 01:42:42;;;;;;;7.90;5.53;;;3.10;99.90;;;;;;494124;241;29029;-72
2023/11/22 01:44:44;;;;;;;11.02;5.35;;;3.10;99.90;;;;;;494078;241;27592;-72
2023/11/22 01:46:45;;;;;;;8.30;5.70;;;3.10;99.90;;;;;;493981;241;27472;-72
2023/11/22 01:48:46;;;;;;;8.07;6.10;;;3.10;99.90;;;;;;493986;241;27576;-71
2023/11/22 01:50:47;;;;;;;10.73;6.20;;;3.10;99.90;;;;;;493981;241;27505;-71
2023/11/22 01:52:49;;;;;;;8.63;6.00;;;3.10;99.90;;;;;;493953;241;27449;-71
2023/11/22 01:54:50;;;;;;;9.18;5.70;;;3.00;99.90;;;;;;493964;241;27587;-71
2023/11/22 01:56:51;;;;;;;6.40;5.18;;;3.00;99.90;;;;;;494094;241;27568;-73
2023/11/22 01:58:54;;;;;;;8.20;5.70;;;3.00;99.90;;;;;;494082;241;27512;-72
2023/11/22 02:00:54;;;;;;;10.55;6.07;;;3.00;99.90;;;;;;493910;241;27502;-72
2023/11/22 02:02:55;;;;;;;7.68;5.55;;;3.00;99.90;;;;;;493993;241;27934;-71
2023/11/22 02:04:56;;;;;;;9.00;6.28;;;3.00;99.90;;;;;;493991;241;28013;-72
2023/11/22 02:06:57;;;;;;;10.27;6.72;;;2.90;99.90;;;;;;494005;241;28012;-73
2023/11/22 02:08:59;;;;;;;8.60;6.15;;;2.90;99.90;;;;;;494012;241;29059;-72
2023/11/22 02:11:00;;;;;;;7.72;5.70;;;2.90;99.90;;;;;;494099;241;27616;-72
2023/11/22 02:13:04;;;;;;;10.63;6.68;;;2.80;99.90;;;;;;494108;241;27581;-72
2023/11/22 02:15:02;;;;;;;10.80;6.85;;;2.80;99.90;;;;;;493719;241;27498;-71
2023/11/22 02:17:04;;;;;;;15.60;6.30;;;2.80;99.90;;;;;;494080;241;27556;-73
2023/11/22 02:19:05;;;;;;;10.85;7.05;;;2.80;99.90;;;;;;494043;241;27966;-72
2023/11/22 02:21:06;;;;;;;8.07;6.20;;;2.70;99.90;;;;;;494083;241;27874;-71
2023/11/22 02:23:08;;;;;;;8.90;6.28;;;2.70;99.90;;;;;;494064;241;27942;-72
2023/11/22 02:25:09;;;;;;;9.65;5.87;;;2.70;99.90;;;;;;493985;241;27467;-71
2023/11/22 02:27:11;;;;;;;8.40;5.60;;;2.70;99.90;;;;;;494086;241;27972;-72
2023/11/22 02:29:12;;;;;;;6.68;5.40;;;2.60;99.90;;;;;;494095;237;27934;-72
2023/11/22 02:31:12;;;;;;;12.95;5.70;;;2.60;99.90;;;;;;493967;241;27978;-71
2023/11/22 02:33:14;;;;;;;6.80;5.25;;;2.60;99.90;;;;;;494004;241;28100;-72
2023/11/22 02:35:16;;;;;;;8.73;5.55;;;2.60;99.90;;;;;;493979;241;27529;-71
2023/11/22 02:37:16;;;;;;;8.55;4.93;;;2.60;99.90;;;;;;493961;241;27520;-72
2023/11/22 02:39:17;;;;;;;7.85;5.00;;;2.50;99.90;;;;;;493999;241;27465;-71
2023/11/22 02:41:19;;;;;;;7.60;5.00;;;2.50;99.90;;;;;;493969;241;27574;-72
2023/11/22 02:43:20;;;;;;;7.35;4.80;;;2.50;99.90;;;;;;494012;241;27518;-72
2023/11/22 02:45:24;;;;;;;5.80;4.03;;;2.40;99.90;;;;;;494070;241;27481;-71
2023/11/22 02:47:22;;;;;;;4.62;4.10;;;2.40;99.90;;;;;;493763;241;27604;-71
2023/11/22 02:49:24;;;;;;;6.28;4.12;;;2.40;99.90;;;;;;493991;241;27514;-72
2023/11/22 02:51:25;;;;;;;5.55;4.82;;;2.40;99.90;;;;;;493971;241;27588;-70
2023/11/22 02:53:27;;;;;;;4.90;3.97;;;2.40;99.90;;;;;;493991;241;27584;-72
2023/11/22 02:55:28;;;;;;;7.12;4.37;;;2.40;99.90;;;;;;494111;241;27927;-71
2023/11/22 02:57:29;;;;;;;6.75;4.65;;;2.40;99.90;;;;;;493917;241;27983;-72
2023/11/22 02:59:30;;;;;;;8.30;4.25;;;2.40;99.90;;;;;;493999;241;28873;-72
2023/11/22 03:01:31;;;;;;;4.87;4.30;;;2.30;99.90;;;;;;494018;241;29014;-71
2023/11/22 03:03:32;;;;;;;6.40;4.62;;;2.40;99.90;;;;;;494066;237;27505;-72
2023/11/22 03:05:34;;;;;;;5.22;4.55;;;2.30;99.90;;;;;;493972;241;27501;-72
2023/11/22 03:07:35;;;;;;;5.60;4.57;;;2.20;99.90;;;;;;493970;241;27540;-72
2023/11/22 03:09:36;;;;;;;5.80;4.53;;;2.20;99.90;;;;;;493999;241;27622;-73
2023/11/22 03:11:38;;;;;;;7.20;5.20;;;2.30;99.90;;;;;;493998;241;27509;-71
2023/11/22 03:13:39;;;;;;;8.52;5.20;;;2.30;99.90;;;;;;493955;241;27512;-72
2023/11/22 03:15:40;;;;;;;6.87;5.10;;;2.20;99.90;;;;;;493982;241;27514;-71
2023/11/22 03:17:41;;;;;;;7.95;4.57;;;2.20;99.90;;;;;;493977;241;27569;-72
2023/11/22 03:19:44;;;;;;;6.43;4.53;;;2.20;99.90;;;;;;494071;241;27469;-74
2023/11/22 03:21:44;;;;;;;5.25;4.20;;;2.20;99.90;;;;;;493952;241;27582;-71
2023/11/22 03:23:45;;;;;;;6.50;4.80;;;2.20;99.90;;;;;;493957;241;28022;-71
2023/11/22 03:25:46;;;;;;;5.87;4.82;;;2.20;99.90;;;;;;493895;241;27890;-72
2023/11/22 03:27:47;;;;;;;6.62;4.70;;;2.20;99.90;;;;;;493977;241;27948;-72
2023/11/22 03:29:49;;;;;;;5.28;4.62;;;2.10;99.90;;;;;;494017;241;28068;-73
2023/11/22 03:31:50;;;;;;;5.80;4.55;;;2.10;99.90;;;;;;493997;241;27528;-71
2023/11/22 03:33:51;;;;;;;5.82;4.53;;;2.10;99.90;;;;;;493897;241;27518;-72
2023/11/22 03:35:52;;;;;;;4.72;4.22;;;2.10;99.90;;;;;;493991;241;27490;-71
2023/11/22 03:37:54;;;;;;;6.25;4.80;;;2.10;99.90;;;;;;493980;241;27520;-72
2023/11/22 03:39:55;;;;;;;8.82;5.12;;;2.10;99.90;;;;;;493988;241;27498;-71
2023/11/22 03:41:57;;;;;;;6.90;5.35;;;2.10;99.90;;;;;;493911;241;27479;-71
2023/11/22 03:43:57;;;;;;;6.50;5.18;;;2.10;99.90;;;;;;494067;241;27520;-72
2023/11/22 03:45:59;;;;;;;5.47;4.60;;;2.10;99.90;;;;;;494084;241;27984;-72
2023/11/22 03:48:00;;;;;;;5.97;5.10;;;2.10;99.90;;;;;;494018;241;27551;-72
2023/11/22 03:50:01;;;;;;;6.32;4.70;;;2.10;99.90;;;;;;494007;241;27583;-71
2023/11/22 03:52:02;;;;;;;8.70;5.47;;;2.10;99.90;;;;;;493975;241;27959;-71
2023/11/22 03:54:04;;;;;;;8.27;5.05;;;2.10;99.90;;;;;;494016;241;27991;-71
2023/11/22 03:56:05;;;;;;;9.07;4.90;;;2.10;99.90;;;;;;494024;241;28082;-72
2023/11/22 03:58:07;;;;;;;7.00;5.30;;;2.10;99.90;;;;;;493986;241;27493;-71
2023/11/22 04:00:09;;;;;;;7.30;5.10;;;2.10;99.90;;;;;;493899;241;27488;-71
2023/11/22 04:02:09;;;;;;;6.45;4.95;;;2.10;99.90;;;;;;493989;241;27637;-71
2023/11/22 04:04:10;;;;;;;13.45;5.18;;;2.00;99.90;;;;;;494014;241;27485;-71
2023/11/22 04:06:11;;;;;;;8.05;5.60;;;2.00;99.90;;;;;;494037;241;27602;-72
2023/11/22 04:08:12;;;;;;;6.87;5.15;;;2.00;99.90;;;;;;494004;241;27470;-71
2023/11/22 04:10:14;;;;;;;5.95;4.95;;;2.00;99.90;;;;;;494101;237;27580;-72
2023/11/22 04:12:15;;;;;;;15.13;5.30;;;1.90;99.90;;;;;;494113;241;28054;-72
2023/11/22 04:14:16;;;;;;;6.15;4.75;;;1.90;99.90;;;;;;494141;241;27939;-71
2023/11/22 04:16:17;;;;;;;6.82;5.03;;;1.90;99.90;;;;;;494164;238;28023;-72
2023/11/22 04:18:19;;;;;;;12.52;5.82;;;1.90;99.90;;;;;;493967;241;29037;-71
2023/11/22 04:20:20;;;;;;;5.87;5.15;;;1.90;99.90;;;;;;494021;241;27498;-72
2023/11/22 04:22:21;;;;;;;5.37;4.87;;;1.80;99.90;;;;;;494157;241;27634;-71
2023/11/22 04:24:22;;;;;;;10.10;5.25;;;1.80;99.90;;;;;;494065;241;27462;-71
2023/11/22 04:26:24;;;;;;;7.55;4.90;;;1.70;99.90;;;;;;494122;241;27571;-71
2023/11/22 04:28:25;;;;;;;7.18;4.90;;;1.70;99.90;;;;;;494019;241;27585;-71
2023/11/22 04:30:26;;;;;;;6.97;4.93;;;1.70;99.90;;;;;;494142;241;27568;-71
2023/11/22 04:32:28;;;;;;;7.78;5.20;;;1.70;99.90;;;;;;494035;241;27512;-71
2023/11/22 04:34:29;;;;;;;6.40;4.95;;;1.70;99.90;;;;;;493996;241;27501;-71
2023/11/22 04:36:30;;;;;;;6.18;5.10;;;1.70;99.90;;;;;;494025;241;27557;-71
2023/11/22 04:38:31;;;;;;;7.62;5.20;;;1.60;99.90;;;;;;494013;237;28038;-74
2023/11/22 04:40:33;;;;;;;7.37;4.85;;;1.60;99.90;;;;;;494051;241;27988;-71
2023/11/22 04:42:34;;;;;;;8.68;5.10;;;1.60;99.90;;;;;;494000;241;28039;-71
2023/11/22 04:44:35;;;;;;;7.90;5.57;;;1.60;99.90;;;;;;494022;241;27935;-71
2023/11/22 04:46:36;;;;;;;5.95;5.03;;;1.60;99.90;;;;;;494056;241;27502;-71
2023/11/22 04:48:40;;;;;;;9.07;4.97;;;1.60;99.90;;;;;;494078;241;27636;-72
2023/11/22 04:50:39;;;;;;;5.65;4.78;;;1.60;99.90;;;;;;493936;241;27555;-71
2023/11/22 04:52:40;;;;;;;6.30;4.00;;;1.60;99.90;;;;;;494114;241;27502;-72
2023/11/22 04:54:41;;;;;;;7.15;4.90;;;1.50;99.90;;;;;;494067;241;27461;-71
2023/11/22 04:56:43;;;;;;;5.07;4.05;;;1.50;99.90;;;;;;494078;241;27514;-71
2023/11/22 04:58:44;;;;;;;7.43;5.32;;;1.50;99.90;;;;;;494081;241;27605;-72
2023/11/22 05:00:45;;;;;;;9.02;5.30;;;1.50;99.90;;;;;;494013;241;27468;-71
2023/11/22 05:02:46;;;;;;;8.02;4.07;;;1.50;99.90;;;;;;493979;241;27581;-72
2023/11/22 05:04:48;;;;;;;11.55;5.65;;;1.50;99.90;;;;;;494069;241;27474;-71
2023/11/22 05:06:49;;;;;;;6.37;4.60;;;1.50;99.90;;;;;;493963;241;27941;-71
2023/11/22 05:08:50;;;;;;;5.97;5.03;;;1.50;99.90;;;;;;493982;241;28091;-71
2023/11/22 05:10:51;;;;;;;5.90;5.20;;;1.40;99.90;;;;;;494029;241;28384;-71
2023/11/22 05:12:53;;;;;;;7.75;4.65;;;1.40;99.90;;;;;;493988;241;27594;-71
2023/11/22 05:14:54;;;;;;;7.03;4.87;;;1.40;99.90;;;;;;494026;241;27601;-72
2023/11/22 05:16:56;;;;;;;6.12;4.95;;;1.40;99.90;;;;;;494007;241;27481;-70
2023/11/22 05:18:56;;;;;;;5.68;4.60;;;1.40;99.90;;;;;;494037;241;27569;-72
2023/11/22 05:20:57;;;;;;;6.62;5.50;;;1.40;99.90;;;;;;494061;241;27474;-72
2023/11/22 05:22:59;;;;;;;6.82;4.82;;;1.40;99.90;;;;;;493978;241;27599;-71
2023/11/22 05:25:00;;;;;;;5.97;5.15;;;1.30;99.90;;;;;;494022;241;27525;-72
2023/11/22 05:27:02;;;;;;;6.22;5.20;;;1.30;99.90;;;;;;494102;241;27540;-71
2023/11/22 05:29:04;;;;;;;7.32;5.60;;;1.30;99.90;;;;;;493994;241;27516;-72
2023/11/22 05:31:04;;;;;;;6.40;5.15;;;1.30;99.90;;;;;;493842;241;27585;-71
2023/11/22 05:33:05;;;;;;;5.47;4.55;;;1.30;99.90;;;;;;494086;241;27942;-70
2023/11/22 05:35:09;;;;;;;9.35;5.22;;;1.20;99.90;;;;;;494140;241;27984;-72
2023/11/22 05:37:08;;;;;;;5.82;5.05;;;1.20;99.90;;;;;;493884;241;28006;-71
2023/11/22 05:39:09;;;;;;;6.40;5.05;;;1.20;99.90;;;;;;494005;241;27984;-71
2023/11/22 05:41:10;;;;;;;7.20;6.00;;;1.20;99.90;;;;;;494073;241;27876;-71
2023/11/22 05:43:11;;;;;;;9.60;8.48;;;1.20;99.90;;;;;;494091;241;27471;-71
2023/11/22 05:45:12;;;;;;;9.88;8.05;;;1.20;99.90;;;;;;494081;241;27513;-72
2023/11/22 05:47:14;;;;;;;6.43;5.50;;;1.10;99.90;;;;;;493985;241;27625;-72
2023/11/22 05:49:15;;;;;;;6.43;4.90;;;1.20;99.90;;;;;;493975;241;27589;-70
2023/11/22 05:51:16;;;;;;;7.28;5.65;;;1.20;99.90;;;;;;494001;241;27519;-71
2023/11/22 05:53:19;;;;;;;6.03;4.78;;;1.20;99.90;;;;;;493969;241;27571;-71
2023/11/22 05:55:19;;;;;;;6.57;4.80;;;1.20;99.90;;;;;;493940;241;27506;-71
2023/11/22 05:57:20;;;;;;;5.40;4.50;;;1.20;99.90;;;;;;493985;241;27465;-71
2023/11/22 05:59:21;;;;;;;5.43;4.43;;;1.10;99.90;;;;;;493998;241;27588;-71
2023/11/22 06:01:23;;;;;;;6.30;5.00;;;1.10;99.90;;;;;;494069;241;28111;-71
2023/11/22 06:03:24;;;;;;;6.12;5.12;;;1.00;99.90;;;;;;494020;241;27986;-71
2023/11/22 06:05:25;;;;;;;5.30;4.62;;;1.00;99.90;;;;;;494081;241;28068;-71
2023/11/22 06:07:27;;;;;;;7.95;5.70;;;1.00;99.90;;;;;;494056;241;27932;-71
2023/11/22 06:09:28;;;;;;;8.65;5.03;;;1.00;99.90;;;;;;493996;241;27529;-70
2023/11/22 06:11:30;;;;;;;6.95;5.12;;;1.00;99.90;;;;;;494060;241;27604;-73
2023/11/22 06:13:30;;;;;;;6.97;4.80;;;1.00;99.90;;;;;;494000;241;27561;-70
2023/11/22 06:15:31;;;;;;;6.18;4.70;;;1.00;99.90;;;;;;493966;241;27622;-71
2023/11/22 06:17:33;;;;;;;6.72;4.80;;;0.90;99.90;;;;;;494014;241;27569;-70
2023/11/22 06:19:34;;;;;;;10.77;5.22;;;0.90;99.90;;;;;;493986;241;27530;-71
2023/11/22 06:21:36;;;;;;;5.78;4.72;;;0.90;99.90;;;;;;494075;241;27582;-71
2023/11/22 06:23:36;;;;;;;5.55;4.68;;;0.90;99.90;;;;;;494046;241;27475;-71
2023/11/22 06:25:38;;;;;;;5.70;4.78;;;0.90;99.90;;;;;;493988;241;27500;-71
2023/11/22 06:27:40;;;;;;;9.27;5.00;;;0.90;99.90;;;;;;494082;241;27503;-70
2023/11/22 06:29:40;;;;;;;8.13;6.12;;;0.90;99.90;;;;;;494060;241;27912;-71
2023/11/22 06:31:41;;;;;;;8.75;5.65;;;0.90;99.90;;;;;;494042;241;28013;-72
2023/11/22 06:33:43;;;;;;;6.43;5.40;;;0.90;99.90;;;;;;494085;241;27958;-71
2023/11/22 06:35:44;;;;;;;6.10;4.87;;;0.90;99.90;;;;;;494072;241;27996;-72
2023/11/22 06:37:45;;;;;;;6.95;5.45;;;0.90;99.90;;;;;;494091;241;27493;-73
2023/11/22 06:39:46;;;;;;;5.62;4.43;;;0.90;99.90;;;;;;494082;241;27555;-71
2023/11/22 06:41:48;;;;;;;6.22;4.50;;;0.90;99.90;;;;;;494097;241;27627;-72
2023/11/22 06:43:49;;;;;;;5.80;4.97;;;0.90;99.90;;;;;;494087;241;27501;-71
2023/11/22 06:45:50;;;;;;;7.93;5.28;;;0.80;99.90;;;;;;494059;241;27592;-71
2023/11/22 06:47:52;;;;;;;8.23;5.50;;;0.90;99.90;;;;;;494026;241;27652;-73
2023/11/22 06:49:53;;;;;;;8.30;5.25;;;0.80;99.90;;;;;;493957;241;27579;-71
2023/11/22 06:51:54;;;;;;;9.95;5.40;;;0.80;99.90;;;;;;494124;241;27588;-70
2023/11/22 06:53:55;;;;;;;12.45;5.25;;;0.70;99.90;;;;;;494083;241;27468;-71
2023/11/22 06:55:56;;;;;;;7.05;5.60;;;0.80;99.90;;;;;;493996;241;27548;-71
2023/11/22 06:57:58;;;;;;;8.27;5.35;;;0.70;99.90;;;;;;493978;241;28034;-72
2023/11/22 07:00:00;;;;;;;6.40;4.80;;;0.80;99.90;;;;;;493932;241;27934;-71
2023/11/22 07:02:00;;;;;;;8.60;5.00;;;0.70;99.90;;;;;;493875;241;27985;-71
2023/11/22 07:04:03;;;;;;;8.70;5.10;;;0.70;99.90;;;;;;494021;241;28701;-71
2023/11/22 07:06:03;;;;;;;7.05;5.30;;;0.70;99.90;;;;;;493940;241;27473;-71
2023/11/22 07:08:04;;;;;;;5.20;4.70;;;0.70;99.90;;;;;;494069;241;27521;-71
2023/11/22 07:10:08;;;;;;;6.03;4.70;;;0.80;99.90;;;;;;494089;241;27478;-70
2023/11/22 07:12:10;;;;;;;6.05;4.65;;;0.80;99.90;;;;;;494015;241;27477;-71
2023/11/22 07:14:10;;;;;;;6.95;5.00;;;0.80;99.90;;;;;;493945;241;27512;-71
2023/11/22 07:16:12;;;;;;;4.95;4.43;;;0.80;99.90;;;;;;494045;241;27600;-71
2023/11/22 07:18:14;;;;;;;7.25;5.97;;;0.70;99.90;;;;;;493848;241;27529;-71
2023/11/22 07:20:17;;;;;;;6.75;5.68;;;0.70;99.90;;;;;;493910;241;27532;-70
2023/11/22 07:22:19;;;;;;;7.35;5.50;;;0.70;99.90;;;;;;493774;241;27463;-71
2023/11/22 07:24:19;;;;;;;8.02;5.53;;;0.70;99.90;;;;;;493908;241;27988;-70
2023/11/22 07:26:20;;;;;;;7.20;5.72;;;0.70;99.90;;;;;;493982;241;27988;-71
2023/11/22 07:28:22;;;;;;;6.32;4.95;;;0.80;99.90;;;;;;494016;241;28782;-71
2023/11/22 07:30:23;;;;;;;5.68;4.82;;;0.80;99.90;;;;;;493985;241;27565;-71
2023/11/22 07:32:24;;;;;;;6.47;5.12;;;0.80;99.90;;;;;;494108;241;27516;-72
2023/11/22 07:34:25;;;;;;;7.12;5.25;;;0.90;99.90;;;;;;494063;241;27553;-71
2023/11/22 07:36:28;;;;;;;6.22;4.55;;;0.80;99.90;;;;;;493990;241;27522;-71
2023/11/22 07:38:29;;;;;;;5.82;4.72;;;0.90;99.90;;;;;;493933;241;27536;-72
2023/11/22 07:40:29;;;;;;;6.87;4.80;;;1.00;99.90;;;;;;494008;241;27562;-70
2023/11/22 07:42:30;;;;;;;5.97;5.25;;;1.00;99.90;;;;;;493927;241;27597;-71
2023/11/22 07:44:32;;;;;;;8.13;5.95;;;1.00;99.90;;;;;;494035;241;27461;-71
2023/11/22 07:46:33;;;;;;;6.97;5.22;;;1.10;99.90;;;;;;494096;241;27502;-71
2023/11/22 07:48:37;;;;;;;8.63;5.05;;;1.10;99.90;;;;;;494065;241;27513;-72
2023/11/22 07:50:36;;;;;;;6.75;5.37;;;1.20;99.90;;;;;;493858;237;27529;-71
2023/11/22 07:52:38;;;;;;;9.25;5.70;;;1.30;99.90;;;;;;493951;241;27973;-71
2023/11/22 07:54:38;;;;;;;6.35;4.95;;;1.40;99.90;;;;;;494041;241;28710;-71
2023/11/22 07:56:39;;;;;;;7.12;5.90;;;1.30;99.90;;;;;;494075;241;28040;-71
2023/11/22 07:58:40;;;;;;;11.27;5.75;;;1.40;99.90;;;;;;493920;241;27634;-71
2023/11/22 08:00:42;;;;;;;9.40;6.50;;;1.30;99.90;;;;;;493952;241;27456;-70
2023/11/22 08:02:43;;;;;;;8.88;5.53;;;1.30;99.90;;;;;;494030;241;27513;-72
2023/11/22 08:04:44;;;;;;;10.00;5.82;;;1.30;99.90;;;;;;494057;241;27506;-71
2023/11/22 08:06:45;;;;;;;10.10;5.43;;;1.40;99.90;;;;;;493972;237;27461;-71
2023/11/22 08:08:47;;;;;;;10.02;6.07;;;1.40;99.90;;;;;;494057;241;27588;-75
2023/11/22 08:10:48;;;;;;;7.22;5.95;;;1.40;99.90;;;;;;494063;241;27557;-71
2023/11/22 08:12:49;;;;;;;9.32;6.00;;;1.30;99.90;;;;;;494013;241;27501;-72
2023/11/22 08:14:51;;;;;;;7.70;5.57;;;1.30;99.90;;;;;;493980;241;27605;-72
2023/11/22 08:16:52;;;;;;;8.93;6.12;;;1.40;99.90;;;;;;493981;241;28013;-71
2023/11/22 08:18:53;;;;;;;6.62;5.10;;;1.40;99.90;;;;;;494006;241;28054;-71
2023/11/22 08:20:55;;;;;;;9.10;6.18;;;1.10;99.90;;;;;;493973;241;28007;-70
2023/11/22 08:22:55;;;;;;;8.38;5.80;;;1.00;99.90;;;;;;493978;241;28070;-71
2023/11/22 08:24:57;;;;;;;8.45;6.22;;;1.00;99.90;;;;;;494059;241;27497;-73
2023/11/22 08:27:03;;;;;;;9.25;6.22;;;1.00;99.90;;;;;;494067;241;27521;-71
2023/11/22 08:28:59;;;;;;;12.02;5.80;;;0.90;99.90;;;;;;493728;241;27541;-72
2023/11/22 08:31:20;;;;;;;8.75;5.40;;;1.00;99.90;;;;;;494090;237;27557;-71
2023/11/22 08:33:05;;;;;;;7.03;5.35;;;0.80;99.90;;;;;;492678;241;28736;-71
2023/11/22 08:35:07;;;;;;;7.90;5.55;;;0.90;99.90;;;;;;494025;241;29021;-71
2023/11/22 08:37:07;;;;;;;6.53;5.43;;;0.90;99.90;;;;;;493974;241;28015;-72
2023/11/22 08:39:08;;;;;;;8.73;6.18;;;0.90;99.90;;;;;;494086;241;27470;-71
2023/11/22 08:41:13;;;;;;;6.68;5.62;;;1.00;99.90;;;;;;494000;241;27520;-71
2023/11/22 08:43:11;;;;;;;6.93;5.50;;;1.10;99.90;;;;;;493825;241;27529;-72
2023/11/22 08:45:12;;;;;;;5.93;5.20;;;1.20;99.90;;;;;;494034;237;27550;-71
2023/11/22 08:47:13;;;;;;;5.85;4.72;;;1.20;99.90;;;;;;494093;241;27885;-72
2023/11/22 08:49:15;;;;;;;8.48;4.90;;;1.20;99.90;;;;;;493984;241;27513;-71
2023/11/22 08:51:16;;;;;;;7.30;4.80;;;1.20;99.90;;;;;;493953;241;27627;-71
2023/11/22 08:53:19;;;;;;;9.48;5.50;;;1.20;99.90;;;;;;494113;241;27527;-72
2023/11/22 08:55:21;;;;;;;7.70;6.12;;;1.10;99.90;;;;;;493946;237;27485;-71
2023/11/22 08:57:20;;;;;;;7.05;5.18;;;1.00;99.90;;;;;;493702;241;27533;-71
2023/11/22 08:59:21;;;;;;;6.60;5.07;;;1.00;99.90;;;;;;493901;241;28042;-71
2023/11/22 09:01:22;;;;;;;5.37;4.80;;;1.10;99.90;;;;;;493947;241;27927;-72
2023/11/22 09:03:23;;;;;;;4.50;4.00;;;1.20;99.90;;;;;;493906;241;29112;-72
2023/11/22 09:05:25;;;;;;;6.82;5.15;;;1.30;99.90;;;;;;493941;241;27999;-72
2023/11/22 09:07:28;;;;;;;8.18;5.05;;;1.20;99.90;;;;;;493970;241;27581;-72
2023/11/22 09:09:30;;;;;;;6.95;4.95;;;1.30;99.90;;;;;;493856;241;27532;-71
2023/11/22 09:11:28;;;;;;;5.10;4.50;;;1.30;99.90;;;;;;493697;241;27458;-71
2023/11/22 09:13:30;;;;;;;9.73;5.10;;;1.30;99.90;;;;;;494052;241;27486;-72
2023/11/22 09:15:33;;;;;;;8.55;5.00;;;1.40;99.90;;;;;;493986;241;27539;-71
2023/11/22 09:17:32;;;;;;;10.35;5.00;;;1.30;99.90;;;;;;493809;241;27514;-71
2023/11/22 09:19:33;;;;;;;6.10;4.30;;;1.20;99.90;;;;;;493973;241;27866;-72
2023/11/22 09:21:35;;;;;;;6.82;4.60;;;1.20;99.90;;;;;;494111;241;27618;-72
2023/11/22 09:23:39;;;;;;;5.70;4.40;;;1.10;99.90;;;;;;494096;241;27581;-71
2023/11/22 09:25:40;;;;;;;6.20;4.45;;;1.10;99.90;;;;;;493974;241;27517;-72
2023/11/22 09:27:41;;;;;;;7.78;5.10;;;1.10;99.90;;;;;;494034;241;28140;-72
2023/11/22 09:29:43;;;;;;;7.20;5.15;;;1.20;99.90;;;;;;494014;241;27929;-72
2023/11/22 09:31:46;;;;;;;14.90;5.68;;;1.30;99.90;;;;;;494106;241;28009;-73
2023/11/22 09:33:45;;;;;;;5.93;4.70;;;1.40;99.90;;;;;;493836;241;27460;-72
2023/11/22 09:35:47;;;;;;;8.20;4.85;;;1.40;99.90;;;;;;493982;241;27491;-72
2023/11/22 09:37:48;;;;;;;7.03;5.30;;;1.60;99.90;;;;;;494083;241;27521;-72
2023/11/22 09:39:50;;;;;;;8.48;5.07;;;1.50;99.90;;;;;;494077;241;27583;-72
2023/11/22 09:41:51;;;;;;;7.37;5.35;;;1.50;99.90;;;;;;494048;241;27518;-72
2023/11/22 09:43:52;;;;;;;5.97;4.90;;;1.50;99.90;;;;;;494025;241;27483;-72
2023/11/22 09:45:54;;;;;;;7.87;4.90;;;1.60;99.90;;;;;;494075;241;27623;-72
2023/11/22 09:47:54;;;;;;;7.15;4.87;;;1.50;99.90;;;;;;493944;241;27518;-74
2023/11/22 09:49:55;;;;;;;6.60;5.03;;;1.30;99.90;;;;;;494056;241;27464;-72
2023/11/22 09:51:57;;;;;;;9.35;5.20;;;1.40;99.90;;;;;;494064;241;27577;-72
2023/11/22 09:54:04;;;;;;;6.57;5.18;;;1.30;99.90;;;;;;494030;241;28681;-72
2023/11/22 09:55:59;;;;;;;5.68;4.50;;;1.40;99.90;;;;;;493473;241;27914;-72
2023/11/22 09:58:00;;;;;;;5.82;4.55;;;1.50;99.90;;;;;;494107;241;27951;-73
2023/11/22 10:00:01;;;;;;;8.15;4.80;;;1.60;99.90;;;;;;493968;241;27926;-71
2023/11/22 10:02:03;;;;;;;5.25;4.28;;;1.50;99.90;;;;;;494065;241;28024;-72
2023/11/22 10:04:07;;;;;;;6.20;4.93;;;1.60;99.90;;;;;;493975;241;27536;-71
2023/11/22 10:06:08;;;;;;;7.70;4.95;;;1.60;99.90;;;;;;494116;241;28036;-74
2023/11/22 10:08:09;;;;;;;6.65;5.00;;;1.40;99.90;;;;;;494094;241;27476;-72
2023/11/22 10:10:11;;;;;;;6.28;4.22;;;1.50;99.90;;;;;;494082;241;27573;-73
2023/11/22 10:12:12;;;;;;;5.55;4.37;;;1.50;99.90;;;;;;494127;241;27474;-72
2023/11/22 10:14:13;;;;;;;7.62;4.55;;;1.40;99.90;;;;;;494084;241;27496;-73
2023/11/22 10:16:18;;;;;;;5.78;5.05;;;1.50;99.90;;;;;;494049;241;27505;-75
2023/11/22 10:18:18;;;;;;;10.20;4.12;;;1.60;99.90;;;;;;494000;241;29124;-73
2023/11/22 10:20:20;;;;;;;4.30;3.90;;;1.70;99.90;;;;;;494020;241;27473;-72
2023/11/22 10:22:21;;;;;;;4.80;3.65;;;1.60;99.90;;;;;;493997;241;27542;-72
2023/11/22 10:24:22;;;;;;;6.37;4.15;;;1.80;99.90;;;;;;494023;241;27572;-73
2023/11/22 10:26:23;;;;;;;5.03;4.03;;;1.90;99.90;;;;;;494011;241;27536;-72
2023/11/22 10:28:25;;;;;;;4.22;3.65;;;1.80;99.90;;;;;;494088;241;27640;-73
2023/11/22 10:30:28;;;;;;;5.05;3.65;;;1.90;99.90;;;;;;493952;241;27463;-72
2023/11/22 10:32:27;;;;;;;5.53;4.25;;;1.80;99.90;;;;;;493917;241;27524;-72
2023/11/22 10:34:28;;;;;;;6.05;3.95;;;1.90;99.90;;;;;;494066;241;27952;-73
2023/11/22 10:36:30;;;;;;;8.25;4.80;;;1.80;99.90;;;;;;494098;241;27572;-72
2023/11/22 10:38:31;;;;;;;4.45;3.75;;;1.70;99.90;;;;;;494002;241;27589;-73